sensor_id;sensor_type;location;lat;lon;timestamp;P1;durP1;ratioP1;P2;durP2;ratioP2
9334;SDS011;4706;41.844;26.082;2024-02-28T00:00:09;23.00;;;17.15;;
9334;SDS011;4706;41.844;26.082;2024-02-28T00:02:36;21.73;;;16.00;;
9334;SDS011;4706;41.844;26.082;2024-02-28T00:05:02;24.35;;;16.27;;
9334;SDS011;4706;41.844;26.082;2024-02-28T00:07:27;26.10;;;17.35;;
9334;SDS011;4706;41.844;26.082;2024-02-28T00:09:53;22.88;;;16.33;;
9334;SDS011;4706;41.844;26.082;2024-02-28T00:12:22;20.08;;;15.05;;
9334;SDS011;4706;41.844;26.082;2024-02-28T00:14:50;24.23;;;16.05;;
9334;SDS011;4706;41.844;26.082;2024-02-28T00:17:16;26.45;;;15.77;;
9334;SDS011;4706;41.844;26.082;2024-02-28T00:19:41;22.65;;;16.25;;
9334;SDS011;4706;41.844;26.082;2024-02-28T00:22:07;24.95;;;15.85;;
9334;SDS011;4706;41.844;26.082;2024-02-28T00:24:34;24.67;;;16.00;;
9334;SDS011;4706;41.844;26.082;2024-02-28T00:26:59;22.83;;;17.42;;
9334;SDS011;4706;41.844;26.082;2024-02-28T00:29:25;23.42;;;17.65;;
9334;SDS011;4706;41.844;26.082;2024-02-28T00:31:51;22.30;;;15.50;;
9334;SDS011;4706;41.844;26.082;2024-02-28T00:34:17;23.10;;;15.45;;
9334;SDS011;4706;41.844;26.082;2024-02-28T00:36:43;22.42;;;16.15;;
9334;SDS011;4706;41.844;26.082;2024-02-28T00:39:08;21.00;;;15.82;;
9334;SDS011;4706;41.844;26.082;2024-02-28T00:41:35;35.92;;;20.40;;
9334;SDS011;4706;41.844;26.082;2024-02-28T00:44:00;38.72;;;22.33;;
9334;SDS011;4706;41.844;26.082;2024-02-28T00:46:27;40.60;;;21.40;;
9334;SDS011;4706;41.844;26.082;2024-02-28T00:48:53;44.40;;;24.02;;
9334;SDS011;4706;41.844;26.082;2024-02-28T00:51:18;31.45;;;20.65;;
9334;SDS011;4706;41.844;26.082;2024-02-28T00:53:44;25.95;;;17.55;;
9334;SDS011;4706;41.844;26.082;2024-02-28T00:56:09;24.40;;;15.77;;
9334;SDS011;4706;41.844;26.082;2024-02-28T00:58:35;26.77;;;16.73;;
9334;SDS011;4706;41.844;26.082;2024-02-28T01:01:00;22.38;;;17.27;;
9334;SDS011;4706;41.844;26.082;2024-02-28T01:03:26;23.95;;;16.33;;
9334;SDS011;4706;41.844;26.082;2024-02-28T01:05:52;23.15;;;14.93;;
9334;SDS011;4706;41.844;26.082;2024-02-28T01:08:17;21.95;;;15.05;;
9334;SDS011;4706;41.844;26.082;2024-02-28T01:10:43;18.58;;;14.55;;
9334;SDS011;4706;41.844;26.082;2024-02-28T01:13:09;22.02;;;15.13;;
9334;SDS011;4706;41.844;26.082;2024-02-28T01:15:34;21.42;;;15.80;;
9334;SDS011;4706;41.844;26.082;2024-02-28T01:18:00;23.08;;;15.20;;
9334;SDS011;4706;41.844;26.082;2024-02-28T01:20:26;21.90;;;16.00;;
9334;SDS011;4706;41.844;26.082;2024-02-28T01:22:51;19.50;;;15.25;;
9334;SDS011;4706;41.844;26.082;2024-02-28T01:25:17;23.08;;;16.20;;
9334;SDS011;4706;41.844;26.082;2024-02-28T01:27:43;22.23;;;16.00;;
9334;SDS011;4706;41.844;26.082;2024-02-28T01:30:09;22.42;;;15.77;;
9334;SDS011;4706;41.844;26.082;2024-02-28T01:32:35;23.48;;;16.70;;
9334;SDS011;4706;41.844;26.082;2024-02-28T01:35:04;22.35;;;16.95;;
9334;SDS011;4706;41.844;26.082;2024-02-28T01:37:29;26.25;;;17.52;;
9334;SDS011;4706;41.844;26.082;2024-02-28T01:39:55;21.83;;;17.33;;
9334;SDS011;4706;41.844;26.082;2024-02-28T01:42:20;27.27;;;18.40;;
9334;SDS011;4706;41.844;26.082;2024-02-28T01:44:47;23.63;;;17.58;;
9334;SDS011;4706;41.844;26.082;2024-02-28T01:47:16;23.38;;;19.75;;
9334;SDS011;4706;41.844;26.082;2024-02-28T01:49:43;23.02;;;19.50;;
9334;SDS011;4706;41.844;26.082;2024-02-28T01:52:12;23.80;;;20.08;;
9334;SDS011;4706;41.844;26.082;2024-02-28T01:54:38;28.88;;;24.63;;
9334;SDS011;4706;41.844;26.082;2024-02-28T01:57:05;38.95;;;31.70;;
9334;SDS011;4706;41.844;26.082;2024-02-28T01:59:31;34.97;;;31.23;;
9334;SDS011;4706;41.844;26.082;2024-02-28T02:01:57;36.60;;;30.48;;
9334;SDS011;4706;41.844;26.082;2024-02-28T02:04:23;38.85;;;34.00;;
9334;SDS011;4706;41.844;26.082;2024-02-28T02:06:49;39.00;;;34.85;;
9334;SDS011;4706;41.844;26.082;2024-02-28T02:09:15;40.50;;;36.35;;
9334;SDS011;4706;41.844;26.082;2024-02-28T02:11:42;39.00;;;34.88;;
9334;SDS011;4706;41.844;26.082;2024-02-28T02:14:07;36.97;;;33.08;;
9334;SDS011;4706;41.844;26.082;2024-02-28T02:16:33;36.88;;;32.97;;
9334;SDS011;4706;41.844;26.082;2024-02-28T02:18:58;32.70;;;29.17;;
9334;SDS011;4706;41.844;26.082;2024-02-28T02:21:26;33.92;;;28.45;;
9334;SDS011;4706;41.844;26.082;2024-02-28T02:23:55;30.73;;;27.55;;
9334;SDS011;4706;41.844;26.082;2024-02-28T02:26:21;28.13;;;24.85;;
9334;SDS011;4706;41.844;26.082;2024-02-28T02:28:46;29.15;;;25.65;;
9334;SDS011;4706;41.844;26.082;2024-02-28T02:31:12;27.20;;;23.42;;
9334;SDS011;4706;41.844;26.082;2024-02-28T02:33:38;25.77;;;22.77;;
9334;SDS011;4706;41.844;26.082;2024-02-28T02:36:04;37.47;;;28.00;;
9334;SDS011;4706;41.844;26.082;2024-02-28T02:38:29;62.05;;;47.42;;
9334;SDS011;4706;41.844;26.082;2024-02-28T02:40:55;44.63;;;37.42;;
9334;SDS011;4706;41.844;26.082;2024-02-28T02:43:21;27.60;;;23.80;;
9334;SDS011;4706;41.844;26.082;2024-02-28T02:45:46;21.48;;;19.00;;
9334;SDS011;4706;41.844;26.082;2024-02-28T02:48:12;21.15;;;16.02;;
9334;SDS011;4706;41.844;26.082;2024-02-28T02:50:37;20.08;;;15.43;;
9334;SDS011;4706;41.844;26.082;2024-02-28T02:53:03;22.45;;;17.42;;
9334;SDS011;4706;41.844;26.082;2024-02-28T02:55:29;21.98;;;17.15;;
9334;SDS011;4706;41.844;26.082;2024-02-28T02:57:55;27.13;;;19.75;;
9334;SDS011;4706;41.844;26.082;2024-02-28T03:00:21;32.10;;;19.98;;
9334;SDS011;4706;41.844;26.082;2024-02-28T03:02:47;31.70;;;19.55;;
9334;SDS011;4706;41.844;26.082;2024-02-28T03:05:12;33.25;;;20.48;;
9334;SDS011;4706;41.844;26.082;2024-02-28T03:07:38;34.20;;;20.20;;
9334;SDS011;4706;41.844;26.082;2024-02-28T03:10:03;33.10;;;19.48;;
9334;SDS011;4706;41.844;26.082;2024-02-28T03:12:29;34.88;;;18.90;;
9334;SDS011;4706;41.844;26.082;2024-02-28T03:14:55;27.35;;;18.65;;
9334;SDS011;4706;41.844;26.082;2024-02-28T03:17:21;25.80;;;18.08;;
9334;SDS011;4706;41.844;26.082;2024-02-28T03:19:46;27.05;;;18.60;;
9334;SDS011;4706;41.844;26.082;2024-02-28T03:22:12;30.80;;;17.90;;
9334;SDS011;4706;41.844;26.082;2024-02-28T03:24:38;26.05;;;17.83;;
9334;SDS011;4706;41.844;26.082;2024-02-28T03:27:03;20.35;;;16.02;;
9334;SDS011;4706;41.844;26.082;2024-02-28T03:29:29;20.58;;;15.63;;
9334;SDS011;4706;41.844;26.082;2024-02-28T03:31:55;22.05;;;15.65;;
9334;SDS011;4706;41.844;26.082;2024-02-28T03:34:21;20.17;;;16.02;;
9334;SDS011;4706;41.844;26.082;2024-02-28T03:36:46;17.20;;;15.30;;
9334;SDS011;4706;41.844;26.082;2024-02-28T03:39:12;19.45;;;15.85;;
9334;SDS011;4706;41.844;26.082;2024-02-28T03:41:38;21.15;;;17.60;;
9334;SDS011;4706;41.844;26.082;2024-02-28T03:44:04;24.83;;;18.05;;
9334;SDS011;4706;41.844;26.082;2024-02-28T03:46:30;26.17;;;17.27;;
9334;SDS011;4706;41.844;26.082;2024-02-28T03:48:55;22.77;;;16.60;;
9334;SDS011;4706;41.844;26.082;2024-02-28T03:51:21;21.40;;;16.98;;
9334;SDS011;4706;41.844;26.082;2024-02-28T03:53:47;26.88;;;18.25;;
9334;SDS011;4706;41.844;26.082;2024-02-28T03:56:12;24.05;;;17.48;;
9334;SDS011;4706;41.844;26.082;2024-02-28T03:58:39;22.00;;;16.95;;
9334;SDS011;4706;41.844;26.082;2024-02-28T04:01:05;23.55;;;17.27;;
9334;SDS011;4706;41.844;26.082;2024-02-28T04:03:30;21.50;;;16.92;;
9334;SDS011;4706;41.844;26.082;2024-02-28T04:05:56;27.25;;;16.77;;
9334;SDS011;4706;41.844;26.082;2024-02-28T04:08:22;25.23;;;16.77;;
9334;SDS011;4706;41.844;26.082;2024-02-28T04:10:48;23.05;;;15.13;;
9334;SDS011;4706;41.844;26.082;2024-02-28T04:13:15;26.63;;;16.05;;
9334;SDS011;4706;41.844;26.082;2024-02-28T04:15:40;16.80;;;13.63;;
9334;SDS011;4706;41.844;26.082;2024-02-28T04:18:06;18.90;;;14.80;;
9334;SDS011;4706;41.844;26.082;2024-02-28T04:20:32;21.73;;;15.20;;
9334;SDS011;4706;41.844;26.082;2024-02-28T04:22:58;25.30;;;16.10;;
9334;SDS011;4706;41.844;26.082;2024-02-28T04:25:23;24.02;;;16.00;;
9334;SDS011;4706;41.844;26.082;2024-02-28T04:27:48;24.05;;;15.20;;
9334;SDS011;4706;41.844;26.082;2024-02-28T04:30:14;29.27;;;15.95;;
9334;SDS011;4706;41.844;26.082;2024-02-28T04:32:40;24.50;;;15.25;;
9334;SDS011;4706;41.844;26.082;2024-02-28T04:35:06;20.30;;;14.25;;
9334;SDS011;4706;41.844;26.082;2024-02-28T04:37:31;21.98;;;13.50;;
9334;SDS011;4706;41.844;26.082;2024-02-28T04:39:57;21.20;;;15.07;;
9334;SDS011;4706;41.844;26.082;2024-02-28T04:42:22;23.00;;;14.15;;
9334;SDS011;4706;41.844;26.082;2024-02-28T04:44:48;18.20;;;13.77;;
9334;SDS011;4706;41.844;26.082;2024-02-28T04:47:13;17.85;;;13.30;;
9334;SDS011;4706;41.844;26.082;2024-02-28T04:49:39;16.23;;;13.73;;
9334;SDS011;4706;41.844;26.082;2024-02-28T04:52:04;18.48;;;14.77;;
9334;SDS011;4706;41.844;26.082;2024-02-28T04:54:31;18.17;;;14.88;;
9334;SDS011;4706;41.844;26.082;2024-02-28T04:56:57;23.52;;;16.20;;
9334;SDS011;4706;41.844;26.082;2024-02-28T04:59:23;23.70;;;17.40;;
9334;SDS011;4706;41.844;26.082;2024-02-28T05:01:48;22.00;;;18.00;;
9334;SDS011;4706;41.844;26.082;2024-02-28T05:04:13;23.10;;;19.20;;
9334;SDS011;4706;41.844;26.082;2024-02-28T05:06:39;24.35;;;19.30;;
9334;SDS011;4706;41.844;26.082;2024-02-28T05:09:05;26.15;;;19.83;;
9334;SDS011;4706;41.844;26.082;2024-02-28T05:11:30;31.80;;;18.13;;
9334;SDS011;4706;41.844;26.082;2024-02-28T05:13:56;25.35;;;17.48;;
9334;SDS011;4706;41.844;26.082;2024-02-28T05:16:21;20.25;;;14.85;;
9334;SDS011;4706;41.844;26.082;2024-02-28T05:18:47;21.13;;;15.20;;
9334;SDS011;4706;41.844;26.082;2024-02-28T05:21:13;20.15;;;14.52;;
9334;SDS011;4706;41.844;26.082;2024-02-28T05:23:39;24.85;;;15.55;;
9334;SDS011;4706;41.844;26.082;2024-02-28T05:26:05;22.33;;;15.75;;
9334;SDS011;4706;41.844;26.082;2024-02-28T05:28:35;27.08;;;17.80;;
9334;SDS011;4706;41.844;26.082;2024-02-28T05:33:52;29.58;;;22.83;;
9334;SDS011;4706;41.844;26.082;2024-02-28T05:36:19;30.58;;;23.85;;
9334;SDS011;4706;41.844;26.082;2024-02-28T05:38:45;36.13;;;24.40;;
9334;SDS011;4706;41.844;26.082;2024-02-28T05:41:11;39.63;;;26.88;;
9334;SDS011;4706;41.844;26.082;2024-02-28T05:43:37;39.53;;;27.65;;
9334;SDS011;4706;41.844;26.082;2024-02-28T05:46:03;37.72;;;26.75;;
9334;SDS011;4706;41.844;26.082;2024-02-28T05:48:28;32.65;;;22.35;;
9334;SDS011;4706;41.844;26.082;2024-02-28T05:50:54;34.25;;;20.80;;
9334;SDS011;4706;41.844;26.082;2024-02-28T05:53:19;29.58;;;20.50;;
9334;SDS011;4706;41.844;26.082;2024-02-28T05:55:45;27.25;;;21.40;;
9334;SDS011;4706;41.844;26.082;2024-02-28T05:58:10;31.58;;;19.77;;
9334;SDS011;4706;41.844;26.082;2024-02-28T06:00:36;47.75;;;26.35;;
9334;SDS011;4706;41.844;26.082;2024-02-28T06:03:02;30.95;;;19.17;;
9334;SDS011;4706;41.844;26.082;2024-02-28T06:05:28;30.52;;;19.17;;
9334;SDS011;4706;41.844;26.082;2024-02-28T06:07:53;31.20;;;19.65;;
9334;SDS011;4706;41.844;26.082;2024-02-28T06:10:19;34.30;;;19.90;;
9334;SDS011;4706;41.844;26.082;2024-02-28T06:12:46;41.35;;;28.30;;
9334;SDS011;4706;41.844;26.082;2024-02-28T06:15:11;48.17;;;31.17;;
9334;SDS011;4706;41.844;26.082;2024-02-28T06:17:37;35.95;;;20.45;;
9334;SDS011;4706;41.844;26.082;2024-02-28T06:20:02;38.22;;;23.67;;
9334;SDS011;4706;41.844;26.082;2024-02-28T06:22:28;33.08;;;21.63;;
9334;SDS011;4706;41.844;26.082;2024-02-28T06:24:53;45.00;;;22.27;;
9334;SDS011;4706;41.844;26.082;2024-02-28T06:27:19;45.92;;;23.08;;
9334;SDS011;4706;41.844;26.082;2024-02-28T06:29:44;44.42;;;25.00;;
9334;SDS011;4706;41.844;26.082;2024-02-28T06:32:10;38.97;;;24.05;;
9334;SDS011;4706;41.844;26.082;2024-02-28T06:34:35;43.03;;;24.80;;
9334;SDS011;4706;41.844;26.082;2024-02-28T06:37:01;39.78;;;24.35;;
9334;SDS011;4706;41.844;26.082;2024-02-28T06:39:26;39.22;;;22.85;;
9334;SDS011;4706;41.844;26.082;2024-02-28T06:41:52;38.47;;;22.05;;
9334;SDS011;4706;41.844;26.082;2024-02-28T06:44:18;37.45;;;23.80;;
9334;SDS011;4706;41.844;26.082;2024-02-28T06:46:43;33.83;;;23.88;;
9334;SDS011;4706;41.844;26.082;2024-02-28T06:49:09;36.58;;;21.63;;
9334;SDS011;4706;41.844;26.082;2024-02-28T06:51:35;35.05;;;21.65;;
9334;SDS011;4706;41.844;26.082;2024-02-28T06:54:00;29.15;;;19.52;;
9334;SDS011;4706;41.844;26.082;2024-02-28T06:56:26;29.45;;;19.63;;
9334;SDS011;4706;41.844;26.082;2024-02-28T06:58:51;35.13;;;21.13;;
9334;SDS011;4706;41.844;26.082;2024-02-28T07:01:17;33.85;;;22.13;;
9334;SDS011;4706;41.844;26.082;2024-02-28T07:03:43;35.17;;;22.23;;
9334;SDS011;4706;41.844;26.082;2024-02-28T07:06:09;29.00;;;20.05;;
9334;SDS011;4706;41.844;26.082;2024-02-28T07:08:35;33.83;;;21.52;;
9334;SDS011;4706;41.844;26.082;2024-02-28T07:11:00;33.13;;;23.00;;
9334;SDS011;4706;41.844;26.082;2024-02-28T07:13:26;28.02;;;18.88;;
9334;SDS011;4706;41.844;26.082;2024-02-28T07:15:52;31.58;;;20.02;;
9334;SDS011;4706;41.844;26.082;2024-02-28T07:18:19;28.67;;;17.58;;
9334;SDS011;4706;41.844;26.082;2024-02-28T07:20:45;28.20;;;16.70;;
9334;SDS011;4706;41.844;26.082;2024-02-28T07:23:11;29.75;;;17.70;;
9334;SDS011;4706;41.844;26.082;2024-02-28T07:25:37;26.30;;;17.33;;
9334;SDS011;4706;41.844;26.082;2024-02-28T07:28:03;30.73;;;18.65;;
9334;SDS011;4706;41.844;26.082;2024-02-28T07:30:28;36.75;;;21.13;;
9334;SDS011;4706;41.844;26.082;2024-02-28T07:32:54;36.80;;;20.63;;
9334;SDS011;4706;41.844;26.082;2024-02-28T07:35:20;24.00;;;16.38;;
9334;SDS011;4706;41.844;26.082;2024-02-28T07:37:46;25.58;;;17.00;;
9334;SDS011;4706;41.844;26.082;2024-02-28T07:40:12;26.90;;;17.38;;
9334;SDS011;4706;41.844;26.082;2024-02-28T07:42:37;26.48;;;18.10;;
9334;SDS011;4706;41.844;26.082;2024-02-28T07:45:03;26.75;;;17.55;;
9334;SDS011;4706;41.844;26.082;2024-02-28T07:47:29;31.92;;;19.02;;
9334;SDS011;4706;41.844;26.082;2024-02-28T07:49:54;31.08;;;21.00;;
9334;SDS011;4706;41.844;26.082;2024-02-28T07:52:20;27.80;;;18.02;;
9334;SDS011;4706;41.844;26.082;2024-02-28T07:54:45;26.17;;;18.10;;
9334;SDS011;4706;41.844;26.082;2024-02-28T07:57:11;29.48;;;19.42;;
9334;SDS011;4706;41.844;26.082;2024-02-28T07:59:44;32.95;;;20.90;;
9334;SDS011;4706;41.844;26.082;2024-02-28T08:02:09;26.52;;;17.65;;
9334;SDS011;4706;41.844;26.082;2024-02-28T08:04:38;32.25;;;19.23;;
9334;SDS011;4706;41.844;26.082;2024-02-28T08:07:04;24.23;;;17.50;;
9334;SDS011;4706;41.844;26.082;2024-02-28T08:09:30;29.20;;;18.50;;
9334;SDS011;4706;41.844;26.082;2024-02-28T08:11:55;28.17;;;17.27;;
9334;SDS011;4706;41.844;26.082;2024-02-28T08:14:23;23.65;;;16.05;;
9334;SDS011;4706;41.844;26.082;2024-02-28T08:16:48;24.27;;;16.20;;
9334;SDS011;4706;41.844;26.082;2024-02-28T08:19:14;23.77;;;17.13;;
9334;SDS011;4706;41.844;26.082;2024-02-28T08:21:39;27.77;;;17.95;;
9334;SDS011;4706;41.844;26.082;2024-02-28T08:24:05;26.55;;;16.58;;
9334;SDS011;4706;41.844;26.082;2024-02-28T08:26:31;26.30;;;18.13;;
9334;SDS011;4706;41.844;26.082;2024-02-28T08:28:57;20.38;;;16.33;;
9334;SDS011;4706;41.844;26.082;2024-02-28T08:31:22;23.45;;;15.95;;
9334;SDS011;4706;41.844;26.082;2024-02-28T08:33:48;22.42;;;16.67;;
9334;SDS011;4706;41.844;26.082;2024-02-28T08:36:13;26.38;;;15.73;;
9334;SDS011;4706;41.844;26.082;2024-02-28T08:38:40;21.05;;;15.60;;
9334;SDS011;4706;41.844;26.082;2024-02-28T08:41:06;21.80;;;15.35;;
9334;SDS011;4706;41.844;26.082;2024-02-28T08:43:41;21.98;;;15.23;;
9334;SDS011;4706;41.844;26.082;2024-02-28T08:46:07;18.70;;;14.45;;
9334;SDS011;4706;41.844;26.082;2024-02-28T08:48:33;20.73;;;15.00;;
9334;SDS011;4706;41.844;26.082;2024-02-28T08:50:59;22.92;;;14.98;;
9334;SDS011;4706;41.844;26.082;2024-02-28T08:53:24;20.77;;;14.63;;
9334;SDS011;4706;41.844;26.082;2024-02-28T08:55:50;21.88;;;13.82;;
9334;SDS011;4706;41.844;26.082;2024-02-28T08:58:16;19.67;;;14.23;;
9334;SDS011;4706;41.844;26.082;2024-02-28T09:00:41;21.88;;;14.45;;
9334;SDS011;4706;41.844;26.082;2024-02-28T09:03:07;19.27;;;14.30;;
9334;SDS011;4706;41.844;26.082;2024-02-28T09:05:33;20.77;;;13.95;;
9334;SDS011;4706;41.844;26.082;2024-02-28T09:07:58;20.70;;;13.65;;
9334;SDS011;4706;41.844;26.082;2024-02-28T09:10:24;18.88;;;13.80;;
9334;SDS011;4706;41.844;26.082;2024-02-28T09:12:50;20.00;;;14.27;;
9334;SDS011;4706;41.844;26.082;2024-02-28T09:15:16;22.20;;;13.73;;
9334;SDS011;4706;41.844;26.082;2024-02-28T09:17:41;21.30;;;13.35;;
9334;SDS011;4706;41.844;26.082;2024-02-28T09:20:07;18.83;;;13.57;;
9334;SDS011;4706;41.844;26.082;2024-02-28T09:22:34;20.52;;;12.70;;
9334;SDS011;4706;41.844;26.082;2024-02-28T09:25:00;20.35;;;12.73;;
9334;SDS011;4706;41.844;26.082;2024-02-28T09:27:29;19.20;;;13.30;;
9334;SDS011;4706;41.844;26.082;2024-02-28T09:29:54;17.88;;;11.48;;
9334;SDS011;4706;41.844;26.082;2024-02-28T09:32:20;14.98;;;10.45;;
9334;SDS011;4706;41.844;26.082;2024-02-28T09:34:45;14.95;;;10.75;;
9334;SDS011;4706;41.844;26.082;2024-02-28T09:37:11;15.50;;;11.52;;
9334;SDS011;4706;41.844;26.082;2024-02-28T09:39:40;17.42;;;10.35;;
9334;SDS011;4706;41.844;26.082;2024-02-28T09:42:06;14.43;;;10.48;;
9334;SDS011;4706;41.844;26.082;2024-02-28T09:44:33;17.30;;;10.57;;
9334;SDS011;4706;41.844;26.082;2024-02-28T09:46:59;16.23;;;9.38;;
9334;SDS011;4706;41.844;26.082;2024-02-28T09:49:24;20.55;;;9.38;;
9334;SDS011;4706;41.844;26.082;2024-02-28T09:51:52;13.80;;;10.02;;
9334;SDS011;4706;41.844;26.082;2024-02-28T09:54:18;14.85;;;11.00;;
9334;SDS011;4706;41.844;26.082;2024-02-28T09:56:43;16.13;;;11.38;;
9334;SDS011;4706;41.844;26.082;2024-02-28T09:59:09;19.05;;;11.57;;
9334;SDS011;4706;41.844;26.082;2024-02-28T10:01:42;14.52;;;9.55;;
9334;SDS011;4706;41.844;26.082;2024-02-28T10:04:09;15.10;;;10.77;;
9334;SDS011;4706;41.844;26.082;2024-02-28T10:06:39;15.45;;;11.15;;
9334;SDS011;4706;41.844;26.082;2024-02-28T10:09:05;17.95;;;10.93;;
9334;SDS011;4706;41.844;26.082;2024-02-28T10:11:30;16.25;;;10.93;;
9334;SDS011;4706;41.844;26.082;2024-02-28T10:13:56;16.10;;;10.95;;
9334;SDS011;4706;41.844;26.082;2024-02-28T10:16:21;15.65;;;10.25;;
9334;SDS011;4706;41.844;26.082;2024-02-28T10:18:47;17.92;;;11.73;;
9334;SDS011;4706;41.844;26.082;2024-02-28T10:21:14;14.98;;;10.80;;
9334;SDS011;4706;41.844;26.082;2024-02-28T10:23:40;16.02;;;11.02;;
9334;SDS011;4706;41.844;26.082;2024-02-28T10:26:09;15.35;;;10.30;;
9334;SDS011;4706;41.844;26.082;2024-02-28T10:28:38;16.65;;;11.05;;
9334;SDS011;4706;41.844;26.082;2024-02-28T10:31:07;15.73;;;12.07;;
9334;SDS011;4706;41.844;26.082;2024-02-28T10:33:33;16.75;;;11.43;;
9334;SDS011;4706;41.844;26.082;2024-02-28T10:36:01;15.98;;;10.07;;
9334;SDS011;4706;41.844;26.082;2024-02-28T10:38:28;18.25;;;11.68;;
9334;SDS011;4706;41.844;26.082;2024-02-28T10:40:53;20.60;;;14.02;;
9334;SDS011;4706;41.844;26.082;2024-02-28T10:43:20;16.83;;;11.25;;
9334;SDS011;4706;41.844;26.082;2024-02-28T10:45:47;16.13;;;10.00;;
9334;SDS011;4706;41.844;26.082;2024-02-28T10:48:16;13.73;;;9.98;;
9334;SDS011;4706;41.844;26.082;2024-02-28T10:50:43;14.85;;;9.65;;
9334;SDS011;4706;41.844;26.082;2024-02-28T10:53:12;15.77;;;10.25;;
9334;SDS011;4706;41.844;26.082;2024-02-28T10:55:40;11.55;;;9.52;;
9334;SDS011;4706;41.844;26.082;2024-02-28T10:58:07;15.20;;;10.55;;
9334;SDS011;4706;41.844;26.082;2024-02-28T11:00:35;14.13;;;10.57;;
9334;SDS011;4706;41.844;26.082;2024-02-28T11:03:04;17.60;;;10.30;;
9334;SDS011;4706;41.844;26.082;2024-02-28T11:05:43;14.18;;;9.55;;
9334;SDS011;4706;41.844;26.082;2024-02-28T11:08:21;14.40;;;8.38;;
9334;SDS011;4706;41.844;26.082;2024-02-28T11:10:57;12.70;;;9.02;;
9334;SDS011;4706;41.844;26.082;2024-02-28T11:13:24;14.15;;;9.68;;
9334;SDS011;4706;41.844;26.082;2024-02-28T11:15:51;13.80;;;10.52;;
9334;SDS011;4706;41.844;26.082;2024-02-28T11:18:18;12.43;;;9.23;;
9334;SDS011;4706;41.844;26.082;2024-02-28T11:20:44;11.43;;;8.40;;
9334;SDS011;4706;41.844;26.082;2024-02-28T11:23:13;8.82;;;7.70;;
9334;SDS011;4706;41.844;26.082;2024-02-28T11:25:40;13.98;;;8.30;;
9334;SDS011;4706;41.844;26.082;2024-02-28T11:28:06;11.73;;;8.18;;
9334;SDS011;4706;41.844;26.082;2024-02-28T11:30:32;13.30;;;8.65;;
9334;SDS011;4706;41.844;26.082;2024-02-28T11:32:58;13.48;;;8.68;;
9334;SDS011;4706;41.844;26.082;2024-02-28T11:35:27;17.00;;;8.85;;
9334;SDS011;4706;41.844;26.082;2024-02-28T11:37:56;13.30;;;8.80;;
9334;SDS011;4706;41.844;26.082;2024-02-28T11:40:25;16.70;;;8.60;;
9334;SDS011;4706;41.844;26.082;2024-02-28T11:42:51;13.82;;;8.30;;
9334;SDS011;4706;41.844;26.082;2024-02-28T11:45:20;9.68;;;8.63;;
9334;SDS011;4706;41.844;26.082;2024-02-28T11:47:45;11.82;;;8.98;;
9334;SDS011;4706;41.844;26.082;2024-02-28T11:50:12;12.35;;;8.52;;
9334;SDS011;4706;41.844;26.082;2024-02-28T11:52:43;12.63;;;8.60;;
9334;SDS011;4706;41.844;26.082;2024-02-28T11:55:09;16.17;;;12.90;;
9334;SDS011;4706;41.844;26.082;2024-02-28T11:57:37;11.73;;;8.18;;
9334;SDS011;4706;41.844;26.082;2024-02-28T12:00:06;11.80;;;8.05;;
9334;SDS011;4706;41.844;26.082;2024-02-28T12:02:32;12.23;;;7.90;;
9334;SDS011;4706;41.844;26.082;2024-02-28T12:05:01;10.23;;;7.57;;
9334;SDS011;4706;41.844;26.082;2024-02-28T12:07:27;12.90;;;8.60;;
9334;SDS011;4706;41.844;26.082;2024-02-28T12:09:54;10.20;;;7.43;;
9334;SDS011;4706;41.844;26.082;2024-02-28T12:12:19;10.90;;;8.30;;
9334;SDS011;4706;41.844;26.082;2024-02-28T12:14:46;11.90;;;8.35;;
9334;SDS011;4706;41.844;26.082;2024-02-28T12:17:13;14.63;;;8.70;;
9334;SDS011;4706;41.844;26.082;2024-02-28T12:19:40;12.00;;;8.70;;
9334;SDS011;4706;41.844;26.082;2024-02-28T12:22:05;11.68;;;8.73;;
9334;SDS011;4706;41.844;26.082;2024-02-28T12:24:31;14.45;;;9.23;;
9334;SDS011;4706;41.844;26.082;2024-02-28T12:26:57;14.05;;;10.00;;
9334;SDS011;4706;41.844;26.082;2024-02-28T12:29:22;15.48;;;10.45;;
9334;SDS011;4706;41.844;26.082;2024-02-28T12:31:48;14.10;;;9.95;;
9334;SDS011;4706;41.844;26.082;2024-02-28T12:34:13;11.75;;;9.23;;
9334;SDS011;4706;41.844;26.082;2024-02-28T12:36:40;12.35;;;9.18;;
9334;SDS011;4706;41.844;26.082;2024-02-28T12:39:07;14.85;;;9.88;;
9334;SDS011;4706;41.844;26.082;2024-02-28T12:41:36;14.25;;;9.30;;
9334;SDS011;4706;41.844;26.082;2024-02-28T12:44:03;14.43;;;9.27;;
9334;SDS011;4706;41.844;26.082;2024-02-28T12:46:33;11.98;;;8.13;;
9334;SDS011;4706;41.844;26.082;2024-02-28T12:48:59;11.73;;;9.00;;
9334;SDS011;4706;41.844;26.082;2024-02-28T12:51:44;11.80;;;8.25;;
9334;SDS011;4706;41.844;26.082;2024-02-28T12:54:11;10.30;;;8.05;;
9334;SDS011;4706;41.844;26.082;2024-02-28T12:56:38;10.23;;;7.93;;
9334;SDS011;4706;41.844;26.082;2024-02-28T12:59:05;10.45;;;8.13;;
9334;SDS011;4706;41.844;26.082;2024-02-28T13:01:32;11.13;;;8.02;;
9334;SDS011;4706;41.844;26.082;2024-02-28T13:03:58;13.00;;;8.73;;
9334;SDS011;4706;41.844;26.082;2024-02-28T13:06:23;13.90;;;8.15;;
9334;SDS011;4706;41.844;26.082;2024-02-28T13:08:49;12.95;;;8.65;;
9334;SDS011;4706;41.844;26.082;2024-02-28T13:11:18;12.40;;;8.93;;
9334;SDS011;4706;41.844;26.082;2024-02-28T13:13:45;10.68;;;8.48;;
9334;SDS011;4706;41.844;26.082;2024-02-28T13:16:12;11.38;;;8.57;;
9334;SDS011;4706;41.844;26.082;2024-02-28T13:18:37;12.00;;;9.30;;
9334;SDS011;4706;41.844;26.082;2024-02-28T13:21:03;13.68;;;9.80;;
9334;SDS011;4706;41.844;26.082;2024-02-28T13:23:30;17.70;;;9.70;;
9334;SDS011;4706;41.844;26.082;2024-02-28T13:25:56;13.85;;;10.30;;
9334;SDS011;4706;41.844;26.082;2024-02-28T13:28:22;12.00;;;10.10;;
9334;SDS011;4706;41.844;26.082;2024-02-28T13:30:57;15.23;;;9.43;;
9334;SDS011;4706;41.844;26.082;2024-02-28T13:33:26;12.48;;;10.13;;
9334;SDS011;4706;41.844;26.082;2024-02-28T13:35:53;14.23;;;10.48;;
9334;SDS011;4706;41.844;26.082;2024-02-28T13:38:19;16.77;;;10.60;;
9334;SDS011;4706;41.844;26.082;2024-02-28T13:40:46;18.58;;;11.95;;
9334;SDS011;4706;41.844;26.082;2024-02-28T13:43:12;15.07;;;11.65;;
9334;SDS011;4706;41.844;26.082;2024-02-28T13:45:38;17.10;;;11.77;;
9334;SDS011;4706;41.844;26.082;2024-02-28T13:48:28;16.13;;;12.60;;
9334;SDS011;4706;41.844;26.082;2024-02-28T13:50:59;15.25;;;11.20;;
9334;SDS011;4706;41.844;26.082;2024-02-28T13:53:24;17.20;;;11.43;;
9334;SDS011;4706;41.844;26.082;2024-02-28T13:55:50;14.30;;;10.77;;
9334;SDS011;4706;41.844;26.082;2024-02-28T13:58:17;15.82;;;11.45;;
9334;SDS011;4706;41.844;26.082;2024-02-28T14:00:46;15.23;;;11.25;;
9334;SDS011;4706;41.844;26.082;2024-02-28T14:03:12;14.98;;;10.10;;
9334;SDS011;4706;41.844;26.082;2024-02-28T14:05:38;15.27;;;11.55;;
9334;SDS011;4706;41.844;26.082;2024-02-28T14:08:04;15.63;;;11.70;;
9334;SDS011;4706;41.844;26.082;2024-02-28T14:10:33;15.50;;;11.10;;
9334;SDS011;4706;41.844;26.082;2024-02-28T14:12:58;17.50;;;12.90;;
9334;SDS011;4706;41.844;26.082;2024-02-28T14:15:24;15.27;;;11.43;;
9334;SDS011;4706;41.844;26.082;2024-02-28T14:17:50;17.92;;;10.90;;
9334;SDS011;4706;41.844;26.082;2024-02-28T14:20:16;13.55;;;10.52;;
9334;SDS011;4706;41.844;26.082;2024-02-28T14:22:42;16.02;;;11.25;;
9334;SDS011;4706;41.844;26.082;2024-02-28T14:25:14;20.05;;;11.73;;
9334;SDS011;4706;41.844;26.082;2024-02-28T14:27:42;19.70;;;11.52;;
9334;SDS011;4706;41.844;26.082;2024-02-28T14:30:09;13.15;;;9.07;;
9334;SDS011;4706;41.844;26.082;2024-02-28T14:32:36;13.30;;;8.38;;